createdAt,value
2023-04-07T00:02:17.902Z,3.65
2023-04-07T00:05:21.131Z,3.74
2023-04-07T00:08:23.986Z,3.76
2023-04-07T00:11:27.212Z,3.76
2023-04-07T00:14:35.726Z,3.73
2023-04-07T00:17:38.670Z,3.75
2023-04-07T00:20:41.559Z,3.79
2023-04-07T00:23:44.992Z,3.89
2023-04-07T00:26:47.629Z,3.86
2023-04-07T00:29:50.441Z,3.76
2023-04-07T00:32:53.121Z,3.68
2023-04-07T00:35:57.977Z,3.74
2023-04-07T00:39:00.965Z,3.68
2023-04-07T00:42:08.906Z,3.53
2023-04-07T00:45:11.977Z,3.61
2023-04-07T00:48:15.011Z,3.47
2023-04-07T00:51:22.121Z,3.46
2023-04-07T00:54:25.445Z,3.47
2023-04-07T00:57:28.389Z,3.18
2023-04-07T01:00:35.668Z,3.26
2023-04-07T01:04:05.834Z,3.28
2023-04-07T01:07:23.247Z,3.29
2023-04-07T01:10:51.896Z,3.38
2023-04-07T01:13:57.813Z,3.38
2023-04-07T01:17:03.941Z,3.40
2023-04-07T01:20:10.808Z,3.48
2023-04-07T01:23:48.801Z,4.47
2023-04-07T01:26:52.697Z,3.63
2023-04-07T01:29:56.366Z,3.45
2023-04-07T01:33:01.949Z,3.44
2023-04-07T01:36:06.920Z,3.33
2023-04-07T01:39:11.432Z,3.38
2023-04-07T01:42:16.192Z,3.41
2023-04-07T01:45:23.420Z,3.43
2023-04-07T01:48:26.954Z,3.42
2023-04-07T01:51:32.678Z,3.39
2023-04-07T01:54:35.853Z,3.42
2023-04-07T01:57:39.017Z,3.49
2023-04-07T02:00:47.169Z,3.47
2023-04-07T02:04:02.420Z,3.34
2023-04-07T02:07:11.291Z,3.34
2023-04-07T02:10:17.615Z,3.31
2023-04-07T02:13:22.434Z,3.36
2023-04-07T02:16:27.216Z,3.33
2023-04-07T02:19:30.576Z,3.38
2023-04-07T02:22:34.090Z,3.32
2023-04-07T02:25:38.487Z,3.33
2023-04-07T02:28:41.410Z,3.31
2023-04-07T02:31:44.544Z,3.37
2023-04-07T02:34:47.565Z,3.36
2023-04-07T02:37:51.063Z,3.42
2023-04-07T02:40:54.022Z,3.41
2023-04-07T02:43:57.988Z,3.38
2023-04-07T02:47:01.156Z,3.38
2023-04-07T02:50:04.247Z,3.36
2023-04-07T02:53:10.263Z,3.45
2023-04-07T02:56:12.981Z,3.29
2023-04-07T02:59:15.848Z,3.32
2023-04-07T03:02:18.884Z,3.32
2023-04-07T03:05:22.114Z,3.36
2023-04-07T03:08:24.781Z,3.30
2023-04-07T03:11:28.053Z,3.29
2023-04-07T03:14:31.786Z,3.36
2023-04-07T03:17:35.852Z,3.26
2023-04-07T03:20:38.679Z,3.32
2023-04-07T03:23:42.966Z,3.30
2023-04-07T03:26:45.961Z,3.40
2023-04-07T03:29:51.388Z,3.32
2023-04-07T03:32:54.282Z,3.31
2023-04-07T03:35:57.531Z,3.29
2023-04-07T03:39:00.689Z,3.28
2023-04-07T03:42:03.890Z,3.29
2023-04-07T03:45:07.632Z,3.39
2023-04-07T03:48:12.017Z,3.47
2023-04-07T03:51:17.387Z,3.48
2023-04-07T03:54:21.509Z,3.39
2023-04-07T03:57:24.642Z,3.48
2023-04-07T04:00:31.844Z,3.47
2023-04-07T04:03:36.223Z,3.58
2023-04-07T04:06:40.420Z,3.59
2023-04-07T04:09:43.569Z,3.60
2023-04-07T04:12:49.705Z,3.59
2023-04-07T04:15:53.877Z,3.74
2023-04-07T04:18:56.718Z,3.72
2023-04-07T04:22:00.112Z,4.06
2023-04-07T04:25:02.935Z,3.99
2023-04-07T04:28:07.660Z,3.78
2023-04-07T04:31:11.114Z,3.66
2023-04-07T04:34:14.601Z,3.58
2023-04-07T04:37:18.003Z,3.66
2023-04-07T04:40:21.875Z,3.97
2023-04-07T04:43:25.153Z,3.83
2023-04-07T04:46:28.059Z,3.83
2023-04-07T04:49:31.571Z,3.74
2023-04-07T04:52:35.615Z,3.76
2023-04-07T04:55:40.913Z,3.66
2023-04-07T04:58:46.669Z,3.96
2023-04-07T05:01:51.198Z,3.92
2023-04-07T05:04:54.526Z,4.07
2023-04-07T05:08:00.270Z,3.90
2023-04-07T05:11:06.011Z,3.95
2023-04-07T05:14:10.156Z,3.98
2023-04-07T05:17:14.858Z,3.87
2023-04-07T05:20:17.840Z,4.04
2023-04-07T05:23:21.556Z,4.10
2023-04-07T05:26:24.935Z,3.97
2023-04-07T05:29:28.116Z,4.25
2023-04-07T05:32:32.011Z,4.20
2023-04-07T05:35:37.265Z,4.29
2023-04-07T05:38:40.437Z,4.52
2023-04-07T05:41:44.129Z,4.34
2023-04-07T05:44:48.164Z,4.36
2023-04-07T05:47:52.442Z,4.63
2023-04-07T05:50:56.081Z,4.54
2023-04-07T05:54:06.451Z,4.54
2023-04-07T05:57:10.100Z,4.51
2023-04-07T06:00:15.656Z,4.57
2023-04-07T06:03:21.599Z,4.73
2023-04-07T06:06:27.337Z,4.85
2023-04-07T06:09:33.867Z,4.72
2023-04-07T06:12:36.747Z,4.98
2023-04-07T06:15:40.842Z,4.79
2023-04-07T06:18:44.303Z,4.73
2023-04-07T06:21:50.139Z,4.91
2023-04-07T06:24:53.152Z,4.96
2023-04-07T06:27:58.970Z,4.88
2023-04-07T06:31:11.578Z,4.87
2023-04-07T06:34:18.493Z,4.96
2023-04-07T06:37:28.072Z,4.76
2023-04-07T06:40:39.036Z,4.56
2023-04-07T06:43:48.238Z,4.83
2023-04-07T06:46:53.606Z,4.88
2023-04-07T06:49:57.091Z,4.66
2023-04-07T06:53:03.511Z,4.77
2023-04-07T06:56:09.230Z,4.82
2023-04-07T06:59:12.599Z,4.65
2023-04-07T07:02:15.782Z,4.47
2023-04-07T07:05:23.536Z,4.65
2023-04-07T07:08:32.582Z,4.72
2023-04-07T07:11:36.687Z,4.30
2023-04-07T07:14:45.700Z,4.60
2023-04-07T07:17:55.713Z,4.59
2023-04-07T07:20:58.802Z,4.51
2023-04-07T07:24:02.505Z,4.64
2023-04-07T07:27:06.513Z,4.76
2023-04-07T07:30:10.927Z,4.78
2023-04-07T07:33:13.850Z,4.74
2023-04-07T07:36:17.105Z,5.28
2023-04-07T07:39:20.191Z,5.45
2023-04-07T07:42:23.330Z,5.73
2023-04-07T07:45:26.427Z,5.97
2023-04-07T07:48:32.350Z,6.13
2023-04-07T07:51:39.563Z,6.07
2023-04-07T07:54:46.679Z,6.36
2023-04-07T07:57:51.712Z,5.93
2023-04-07T08:00:56.272Z,5.94
2023-04-07T08:04:02.741Z,5.86
2023-04-07T08:07:05.504Z,5.23
2023-04-07T08:10:15.570Z,5.22
2023-04-07T08:13:18.494Z,5.35
2023-04-07T08:16:22.498Z,5.38
2023-04-07T08:19:25.646Z,5.46
2023-04-07T08:22:28.783Z,5.50
2023-04-07T08:25:32.170Z,5.24
2023-04-07T08:28:35.372Z,5.44
2023-04-07T08:31:38.373Z,5.47
2023-04-07T08:34:50.412Z,5.60
2023-04-07T08:37:54.177Z,5.54
2023-04-07T08:41:08.943Z,5.37
2023-04-07T08:44:21.521Z,5.34
2023-04-07T08:47:27.467Z,5.29
2023-04-07T08:50:31.945Z,4.86
2023-04-07T08:53:43.981Z,5.25
2023-04-07T08:56:50.414Z,5.56
2023-04-07T08:59:54.559Z,5.37
2023-04-07T09:02:58.139Z,5.45
2023-04-07T09:06:02.793Z,5.26
2023-04-07T09:09:08.623Z,5.79
2023-04-07T09:12:12.237Z,5.44
2023-04-07T09:15:15.660Z,5.56
2023-04-07T09:18:19.835Z,5.60
2023-04-07T09:21:22.843Z,5.70
2023-04-07T09:24:29.073Z,5.92
2023-04-07T09:27:34.252Z,5.93
2023-04-07T09:30:37.628Z,5.98
2023-04-07T09:33:41.021Z,5.09
2023-04-07T09:36:44.164Z,5.48
2023-04-07T09:39:53.830Z,5.56
2023-04-07T09:42:58.707Z,5.55
2023-04-07T09:46:08.677Z,5.79
2023-04-07T09:49:11.981Z,5.25
2023-04-07T09:52:14.660Z,5.28
2023-04-07T09:55:23.496Z,5.35
2023-04-07T09:58:26.194Z,5.52
2023-04-07T10:01:29.783Z,5.22
2023-04-07T10:04:33.011Z,5.48
2023-04-07T10:07:36.466Z,5.33
2023-04-07T10:10:43.940Z,5.48
2023-04-07T10:13:47.029Z,5.51
2023-04-07T10:16:51.983Z,5.69
2023-04-07T10:19:58.386Z,5.90
2023-04-07T10:23:11.984Z,6.16
2023-04-07T10:26:20.066Z,6.10
2023-04-07T10:29:24.685Z,5.95
2023-04-07T10:32:27.585Z,5.93
2023-04-07T10:36:04.210Z,5.83
2023-04-07T10:39:06.867Z,5.95
2023-04-07T10:42:37.770Z,5.73
2023-04-07T10:45:49.783Z,5.88
2023-04-07T10:49:09.996Z,6.06
2023-04-07T10:52:12.645Z,5.97
2023-04-07T10:55:34.741Z,6.19
2023-04-07T10:58:37.900Z,6.19
2023-04-07T11:01:40.970Z,6.10
2023-04-07T11:04:46.399Z,6.07
2023-04-07T11:07:52.581Z,6.80
2023-04-07T11:10:55.323Z,6.26
2023-04-07T11:13:58.457Z,6.18
2023-04-07T11:17:04.591Z,6.22
2023-04-07T11:20:11.392Z,6.32
2023-04-07T11:23:18.646Z,6.88
2023-04-07T11:26:22.191Z,6.68
2023-04-07T11:29:32.449Z,7.15
2023-04-07T11:32:37.291Z,6.72
2023-04-07T11:35:48.086Z,6.58
2023-04-07T11:38:51.633Z,6.63
2023-04-07T11:42:01.773Z,6.56
2023-04-07T11:45:08.198Z,6.40
2023-04-07T11:48:30.020Z,6.70
2023-04-07T11:51:33.087Z,7.13
2023-04-07T11:54:53.194Z,7.32
2023-04-07T11:57:57.088Z,7.04
2023-04-07T12:01:07.001Z,7.35
2023-04-07T12:04:14.797Z,7.17
2023-04-07T12:07:17.905Z,7.04
2023-04-07T12:10:22.488Z,7.27
2023-04-07T12:13:25.263Z,6.93
2023-04-07T12:16:28.249Z,6.80
2023-04-07T12:19:42.486Z,7.12
2023-04-07T12:22:45.895Z,7.17
2023-04-07T12:25:48.933Z,7.13
2023-04-07T12:28:52.757Z,7.51
2023-04-07T12:31:56.496Z,7.79
2023-04-07T12:34:59.823Z,7.41
2023-04-07T12:38:03.117Z,7.45
2023-04-07T12:41:06.847Z,7.53
2023-04-07T12:44:10.563Z,7.72
2023-04-07T12:47:14.177Z,7.59
2023-04-07T12:50:18.743Z,7.32
2023-04-07T12:53:21.816Z,7.41
2023-04-07T12:56:24.441Z,7.37
2023-04-07T12:59:27.507Z,7.32
2023-04-07T13:02:30.567Z,7.17
2023-04-07T13:05:34.344Z,7.18
2023-04-07T13:08:37.212Z,7.09
2023-04-07T13:11:40.448Z,7.01
2023-04-07T13:14:52.838Z,7.46
2023-04-07T13:18:02.843Z,7.42
2023-04-07T13:21:40.417Z,7.37
2023-04-07T13:24:30.706Z,6.98
2023-04-07T13:27:34.538Z,7.20
2023-04-07T13:30:37.597Z,7.13
2023-04-07T13:33:41.303Z,7.18
2023-04-07T13:36:44.406Z,7.08
2023-04-07T13:39:47.068Z,7.17
2023-04-07T13:42:50.493Z,7.16
2023-04-07T13:45:53.336Z,7.27
2023-04-07T13:49:00.862Z,7.49
2023-04-07T13:52:06.623Z,7.51
2023-04-07T13:55:10.942Z,6.97
2023-04-07T13:58:16.030Z,7.08
2023-04-07T14:01:19.413Z,7.26
2023-04-07T14:04:23.132Z,7.38
2023-04-07T14:07:26.385Z,7.25
2023-04-07T14:10:33.494Z,7.42
2023-04-07T14:13:39.643Z,7.49
2023-04-07T14:16:48.363Z,7.57
2023-04-07T14:19:51.527Z,7.45
2023-04-07T14:22:54.962Z,7.47
2023-04-07T14:25:58.326Z,7.66
2023-04-07T14:29:01.253Z,7.58
2023-04-07T14:32:04.139Z,7.74
2023-04-07T14:35:09.549Z,7.76
2023-04-07T14:38:12.551Z,7.78
2023-04-07T14:41:15.512Z,7.88
2023-04-07T14:44:18.525Z,7.78
2023-04-07T14:47:21.632Z,7.89
2023-04-07T14:50:26.177Z,7.62
2023-04-07T14:53:29.681Z,7.40
2023-04-07T14:56:32.569Z,7.21
2023-04-07T14:59:35.920Z,7.35
2023-04-07T15:02:39.563Z,7.46
2023-04-07T15:05:43.827Z,7.38
2023-04-07T15:08:49.983Z,7.51
2023-04-07T15:11:53.163Z,7.31
2023-04-07T15:14:56.173Z,7.46
2023-04-07T15:17:59.885Z,7.21
2023-04-07T15:21:02.841Z,7.28
2023-04-07T15:24:05.861Z,7.01
2023-04-07T15:27:09.619Z,6.99
2023-04-07T15:30:12.969Z,6.83
2023-04-07T15:33:15.783Z,6.94
2023-04-07T15:36:18.925Z,6.95
2023-04-07T15:39:21.811Z,6.87
2023-04-07T15:42:25.397Z,6.66
2023-04-07T15:45:29.155Z,6.76
2023-04-07T15:48:32.255Z,6.52
2023-04-07T15:51:36.750Z,6.44
2023-04-07T15:54:39.894Z,6.54
2023-04-07T15:57:43.441Z,6.75
2023-04-07T16:00:53.279Z,6.47
2023-04-07T16:03:56.725Z,6.37
2023-04-07T16:06:59.932Z,6.41
2023-04-07T16:10:03.992Z,6.29
2023-04-07T16:13:08.867Z,6.02
2023-04-07T16:16:11.992Z,6.13
2023-04-07T16:19:15.266Z,6.19
2023-04-07T16:22:18.606Z,5.94
2023-04-07T16:25:21.898Z,6.02
2023-04-07T16:28:28.085Z,5.98
2023-04-07T16:31:31.066Z,5.82
2023-04-07T16:34:37.760Z,5.92
2023-04-07T16:37:41.959Z,5.99
2023-04-07T16:41:03.793Z,6.07
2023-04-07T16:44:07.134Z,6.13
2023-04-07T16:47:10.498Z,6.04
2023-04-07T16:50:13.482Z,5.93
2023-04-07T16:53:16.794Z,5.91
2023-04-07T16:56:30.061Z,5.94
2023-04-07T16:59:37.784Z,6.17
2023-04-07T17:02:40.619Z,6.03
2023-04-07T17:05:44.783Z,5.93
2023-04-07T17:08:48.932Z,6.01
2023-04-07T17:11:53.475Z,5.76
2023-04-07T17:14:56.276Z,5.74
2023-04-07T17:17:59.822Z,5.75
2023-04-07T17:21:02.981Z,5.82
2023-04-07T17:24:10.617Z,5.78
2023-04-07T17:27:13.960Z,5.72
2023-04-07T17:30:20.874Z,5.67
2023-04-07T17:33:30.190Z,5.75
2023-04-07T17:36:45.771Z,5.75
2023-04-07T17:39:49.449Z,5.65
2023-04-07T17:42:56.203Z,5.67
2023-04-07T17:45:58.910Z,5.78
2023-04-07T17:49:04.675Z,5.67
2023-04-07T17:52:07.457Z,5.69
2023-04-07T17:55:11.377Z,5.54
2023-04-07T17:58:14.121Z,5.52
2023-04-07T18:01:17.943Z,5.62
2023-04-07T18:04:21.296Z,5.50
2023-04-07T18:07:24.388Z,5.46
2023-04-07T18:10:30.445Z,5.39
2023-04-07T18:13:37.994Z,5.36
2023-04-07T18:16:42.684Z,5.42
2023-04-07T18:19:48.662Z,5.46
2023-04-07T18:22:52.837Z,5.38
2023-04-07T18:25:56.012Z,5.16
2023-04-07T18:28:59.521Z,5.26
2023-04-07T18:32:04.203Z,5.32
2023-04-07T18:35:07.974Z,5.13
2023-04-07T18:38:11.788Z,5.15
2023-04-07T18:41:14.930Z,5.19
2023-04-07T18:44:17.674Z,5.12
2023-04-07T18:47:21.159Z,5.19
2023-04-07T18:50:24.510Z,5.24
2023-04-07T18:53:27.894Z,5.02
2023-04-07T18:56:32.291Z,5.05
2023-04-07T18:59:37.010Z,5.12
2023-04-07T19:02:44.389Z,5.02
2023-04-07T19:05:52.359Z,4.97
2023-04-07T19:08:56.768Z,4.92
2023-04-07T19:12:00.263Z,4.90
2023-04-07T19:15:03.600Z,4.82
2023-04-07T19:18:10.202Z,4.78
2023-04-07T19:21:13.767Z,4.88
2023-04-07T19:24:17.402Z,4.88
2023-04-07T19:27:20.396Z,4.82
2023-04-07T19:30:27.056Z,4.85
2023-04-07T19:33:29.931Z,4.89
2023-04-07T19:36:33.121Z,4.78
2023-04-07T19:39:35.904Z,4.68
2023-04-07T19:42:42.384Z,4.64
2023-04-07T19:45:49.445Z,4.60
2023-04-07T19:48:52.954Z,4.79
2023-04-07T19:51:56.056Z,4.67
2023-04-07T19:55:01.605Z,4.57
2023-04-07T19:58:04.542Z,4.59
2023-04-07T20:01:16.529Z,4.69
2023-04-07T20:04:41.929Z,4.50
2023-04-07T20:07:44.952Z,4.55
2023-04-07T20:10:51.470Z,4.67
2023-04-07T20:13:54.377Z,4.61
2023-04-07T20:16:57.666Z,4.63
2023-04-07T20:20:00.754Z,4.55
2023-04-07T20:23:03.958Z,4.57
2023-04-07T20:26:07.583Z,4.43
2023-04-07T20:29:10.691Z,4.49
2023-04-07T20:32:13.463Z,4.49
2023-04-07T20:35:16.823Z,4.50
2023-04-07T20:38:29.743Z,4.41
2023-04-07T20:41:33.082Z,4.44
2023-04-07T20:44:36.095Z,4.44
2023-04-07T20:47:51.863Z,4.54
2023-04-07T20:50:59.788Z,4.38
2023-04-07T20:54:03.567Z,4.42
2023-04-07T20:57:06.372Z,4.48
2023-04-07T21:00:11.141Z,4.31
2023-04-07T21:03:14.459Z,4.30
2023-04-07T21:06:17.805Z,4.42
2023-04-07T21:09:20.436Z,4.38
2023-04-07T21:12:23.600Z,4.26
2023-04-07T21:15:26.452Z,4.22
2023-04-07T21:18:29.553Z,4.20
2023-04-07T21:21:32.384Z,4.27
2023-04-07T21:24:37.301Z,4.27
2023-04-07T21:27:40.023Z,4.19
2023-04-07T21:30:45.557Z,4.11
2023-04-07T21:33:48.887Z,4.17
2023-04-07T21:36:55.164Z,4.11
2023-04-07T21:39:58.158Z,4.19
2023-04-07T21:43:01.876Z,4.00
2023-04-07T21:46:04.601Z,4.03
2023-04-07T21:49:07.788Z,3.92
2023-04-07T21:52:11.572Z,3.87
2023-04-07T21:55:18.719Z,3.88
2023-04-07T21:58:23.496Z,3.95
2023-04-07T22:01:29.920Z,3.80
2023-04-07T22:04:33.766Z,3.91
2023-04-07T22:07:41.262Z,3.86
2023-04-07T22:10:45.049Z,3.81
2023-04-07T22:13:54.414Z,3.78
2023-04-07T22:16:58.966Z,3.71
2023-04-07T22:20:02.111Z,3.77
2023-04-07T22:23:05.489Z,3.69
2023-04-07T22:26:10.237Z,3.75
2023-04-07T22:29:13.203Z,3.76
2023-04-07T22:32:16.512Z,3.77
2023-04-07T22:35:19.871Z,3.81
2023-04-07T22:38:25.654Z,3.75
2023-04-07T22:41:28.889Z,3.71
2023-04-07T22:44:32.138Z,3.70
2023-04-07T22:47:35.688Z,3.67
2023-04-07T22:50:39.544Z,3.68
2023-04-07T22:53:42.767Z,3.73
2023-04-07T22:56:45.428Z,3.83
2023-04-07T22:59:48.677Z,3.73
2023-04-07T23:02:52.082Z,3.66
2023-04-07T23:05:55.828Z,3.63
2023-04-07T23:08:58.535Z,3.70
2023-04-07T23:12:02.034Z,3.84
2023-04-07T23:15:05.351Z,3.63
2023-04-07T23:18:08.307Z,3.72
2023-04-07T23:21:11.123Z,3.83
2023-04-07T23:24:14.078Z,3.84
2023-04-07T23:27:16.811Z,3.75
2023-04-07T23:30:20.068Z,3.70
2023-04-07T23:33:23.791Z,3.60
2023-04-07T23:36:27.342Z,3.56
2023-04-07T23:39:30.424Z,3.56
2023-04-07T23:42:33.387Z,3.63
2023-04-07T23:45:36.548Z,3.60
2023-04-07T23:48:41.199Z,3.45
2023-04-07T23:51:44.179Z,3.38
2023-04-07T23:54:47.210Z,3.46
2023-04-07T23:57:50.240Z,3.39
